createdAt,value
2019-06-01T00:02:18.414Z,4.10
2019-06-01T00:04:49.347Z,3.03
2019-06-01T00:07:19.385Z,4.37
2019-06-01T00:09:49.660Z,3.37
2019-06-01T00:12:19.830Z,3.73
2019-06-01T00:14:51.385Z,3.23
2019-06-01T00:17:21.247Z,3.00
2019-06-01T00:19:51.173Z,3.83
2019-06-01T00:22:21.024Z,3.20
2019-06-01T00:24:52.233Z,3.30
2019-06-01T00:27:23.381Z,5.93
2019-06-01T00:29:53.223Z,3.17
2019-06-01T00:32:23.074Z,4.30
2019-06-01T00:34:52.907Z,3.50
2019-06-01T00:37:22.897Z,3.60
2019-06-01T00:39:52.842Z,4.23
2019-06-01T00:42:22.722Z,3.83
2019-06-01T00:44:52.654Z,4.30
2019-06-01T00:47:22.560Z,3.07
2019-06-01T00:49:53.072Z,3.60
2019-06-01T00:52:23.185Z,3.20
2019-06-01T00:54:53.617Z,3.50
2019-06-01T00:57:24.701Z,3.17
2019-06-01T00:59:55.080Z,4.40
2019-06-01T01:02:25.125Z,3.63
2019-06-01T01:05:08.653Z,5.00
2019-06-01T01:07:38.579Z,3.33
2019-06-01T01:10:08.451Z,4.20
2019-06-01T01:12:57.373Z,3.07
2019-06-01T01:15:27.442Z,3.90
2019-06-01T01:17:57.369Z,4.13
2019-06-01T01:20:27.141Z,4.07
2019-06-01T01:22:57.205Z,3.67
2019-06-01T01:25:27.101Z,3.90
2019-06-01T01:27:57.124Z,4.67
2019-06-01T01:30:27.165Z,3.23
2019-06-01T01:32:58.925Z,3.43
2019-06-01T01:35:28.621Z,2.80
2019-06-01T01:37:58.649Z,3.00
2019-06-01T01:40:28.608Z,3.80
2019-06-01T01:42:59.001Z,3.37
2019-06-01T01:45:28.969Z,3.07
2019-06-01T01:47:59.213Z,3.10
2019-06-01T01:50:30.338Z,4.27
2019-06-01T01:53:00.294Z,3.90
2019-06-01T01:55:30.169Z,3.77
2019-06-01T01:58:00.033Z,3.07
2019-06-01T02:00:37.969Z,2.97
2019-06-01T02:03:08.016Z,3.50
2019-06-01T02:05:37.958Z,3.47
2019-06-01T02:08:07.801Z,3.43
2019-06-01T02:10:37.827Z,3.27
2019-06-01T02:13:08.813Z,3.37
2019-06-01T02:15:41.086Z,3.13
2019-06-01T02:18:11.409Z,3.37
2019-06-01T02:20:41.291Z,3.60
2019-06-01T02:23:11.296Z,3.53
2019-06-01T02:25:41.245Z,3.30
2019-06-01T02:28:11.254Z,3.30
2019-06-01T02:30:41.105Z,2.90
2019-06-01T02:33:10.988Z,3.77
2019-06-01T02:35:40.898Z,3.07
2019-06-01T02:38:10.840Z,2.83
2019-06-01T02:40:40.765Z,3.63
2019-06-01T02:43:10.711Z,3.43
2019-06-01T02:45:40.638Z,3.10
2019-06-01T02:48:10.555Z,3.33
2019-06-01T02:50:40.434Z,3.83
2019-06-01T02:53:10.273Z,3.63
2019-06-01T02:55:40.135Z,4.60
2019-06-01T02:58:10.049Z,3.43
2019-06-01T03:01:23.373Z,3.13
2019-06-01T03:03:55.185Z,3.17
2019-06-01T03:06:25.430Z,3.00
2019-06-01T03:08:55.459Z,3.23
2019-06-01T03:11:26.252Z,2.90
2019-06-01T03:13:56.350Z,3.60
2019-06-01T03:16:28.471Z,4.47
2019-06-01T03:19:01.703Z,3.73
2019-06-01T03:21:32.097Z,4.03
2019-06-01T03:24:06.035Z,3.10
2019-06-01T03:26:40.666Z,4.00
2019-06-01T03:29:12.746Z,3.47
2019-06-01T03:31:42.667Z,2.67
2019-06-01T03:34:14.031Z,3.70
2019-06-01T03:36:44.136Z,3.53
2019-06-01T03:39:13.986Z,3.97
2019-06-01T03:41:44.001Z,3.80
2019-06-01T03:44:13.958Z,3.63
2019-06-01T03:46:43.793Z,3.63
2019-06-01T03:49:13.648Z,3.67
2019-06-01T03:51:43.493Z,4.53
2019-06-01T03:54:13.343Z,2.73
2019-06-01T03:56:43.457Z,3.40
2019-06-01T03:59:13.386Z,4.57
2019-06-01T04:01:43.379Z,3.33
2019-06-01T04:04:13.222Z,3.23
2019-06-01T04:06:43.177Z,2.80
2019-06-01T04:09:13.131Z,4.30
2019-06-01T04:11:42.995Z,3.00
2019-06-01T04:14:12.853Z,3.00
2019-06-01T04:16:43.476Z,3.77
2019-06-01T04:19:13.311Z,2.90
2019-06-01T04:21:43.247Z,3.77
2019-06-01T04:24:13.161Z,3.97
2019-06-01T04:26:43.222Z,3.47
2019-06-01T04:29:13.206Z,3.20
2019-06-01T04:31:43.071Z,2.70
2019-06-01T04:34:13.164Z,3.77
2019-06-01T04:36:44.262Z,3.83
2019-06-01T04:39:14.239Z,3.07
2019-06-01T04:41:44.178Z,3.73
2019-06-01T04:44:14.415Z,3.37
2019-06-01T04:46:44.463Z,3.70
2019-06-01T04:49:14.985Z,3.37
2019-06-01T04:51:45.154Z,3.17
2019-06-01T04:54:16.017Z,3.93
2019-06-01T04:56:46.136Z,3.70
2019-06-01T04:59:15.973Z,3.83
2019-06-01T05:01:45.822Z,3.13
2019-06-01T05:04:15.676Z,3.30
2019-06-01T05:06:45.773Z,3.50
2019-06-01T05:09:15.908Z,3.80
2019-06-01T05:11:46.868Z,3.40
2019-06-01T05:14:16.821Z,3.03
2019-06-01T05:16:46.750Z,3.83
2019-06-01T05:19:16.790Z,3.07
2019-06-01T05:21:46.789Z,3.17
2019-06-01T05:24:17.156Z,3.90
2019-06-01T05:26:47.269Z,4.37
2019-06-01T05:29:18.056Z,3.10
2019-06-01T05:31:48.507Z,3.47
2019-06-01T05:34:18.629Z,4.40
2019-06-01T05:36:49.649Z,3.37
2019-06-01T05:39:19.417Z,3.33
2019-06-01T05:41:49.283Z,3.03
2019-06-01T05:44:19.467Z,3.33
2019-06-01T05:46:49.504Z,3.33
2019-06-01T05:49:19.473Z,3.43
2019-06-01T05:51:49.313Z,3.37
2019-06-01T05:54:19.140Z,3.47
2019-06-01T05:56:48.839Z,3.93
2019-06-01T05:59:18.698Z,3.87
2019-06-01T06:01:48.541Z,3.63
2019-06-01T06:04:19.530Z,3.07
2019-06-01T06:06:49.560Z,4.47
2019-06-01T06:09:19.406Z,3.20
2019-06-01T06:11:51.945Z,3.27
2019-06-01T06:14:22.454Z,4.67
2019-06-01T06:16:52.557Z,3.13
2019-06-01T06:19:23.757Z,3.47
2019-06-01T06:21:54.043Z,4.03
2019-06-01T06:24:24.010Z,3.03
2019-06-01T06:26:53.926Z,3.43
2019-06-01T06:29:24.323Z,3.87
2019-06-01T06:31:54.166Z,4.00
2019-06-01T06:34:23.935Z,4.20
2019-06-01T06:36:53.901Z,4.17
2019-06-01T06:39:24.234Z,2.93
2019-06-01T06:41:54.209Z,4.17
2019-06-01T06:44:24.778Z,3.37
2019-06-01T06:46:54.962Z,3.00
2019-06-01T06:49:25.364Z,4.83
2019-06-01T06:51:55.411Z,3.20
2019-06-01T06:54:26.459Z,2.83
2019-06-01T06:56:57.478Z,4.00
2019-06-01T06:59:27.466Z,4.10
2019-06-01T07:01:57.398Z,2.83
2019-06-01T07:04:27.549Z,3.20
2019-06-01T07:06:57.440Z,3.03
2019-06-01T07:09:28.317Z,2.80
2019-06-01T07:11:58.447Z,4.57
2019-06-01T07:14:28.452Z,3.00
2019-06-01T07:16:58.293Z,2.93
2019-06-01T07:19:28.142Z,2.63
2019-06-01T07:21:57.933Z,3.50
2019-06-01T07:24:28.174Z,2.77
2019-06-01T07:26:58.212Z,3.17
2019-06-01T07:29:28.369Z,3.37
2019-06-01T07:31:58.401Z,3.00
2019-06-01T07:34:37.731Z,3.03
2019-06-01T07:36:59.814Z,3.00
2019-06-01T07:39:29.751Z,2.70
2019-06-01T07:41:59.733Z,2.87
2019-06-01T07:44:29.671Z,2.50
2019-06-01T07:47:00.541Z,3.33
2019-06-01T07:49:31.192Z,2.93
2019-06-01T07:52:12.057Z,3.43
2019-06-01T07:54:32.778Z,3.10
2019-06-01T07:57:02.738Z,2.93
2019-06-01T07:59:32.679Z,3.00
2019-06-01T08:02:02.658Z,2.60
2019-06-01T08:04:50.656Z,3.20
2019-06-01T08:07:04.186Z,2.60
2019-06-01T08:09:34.086Z,3.43
2019-06-01T08:12:03.850Z,2.80
2019-06-01T08:14:33.626Z,4.13
2019-06-01T08:17:03.540Z,3.60
2019-06-01T08:19:34.531Z,2.70
2019-06-01T08:22:04.397Z,2.77
2019-06-01T08:24:34.268Z,3.07
2019-06-01T08:27:04.326Z,3.30
2019-06-01T08:29:34.214Z,2.60
2019-06-01T08:32:04.067Z,4.97
2019-06-01T08:34:33.982Z,3.60
2019-06-01T08:37:03.856Z,4.20
2019-06-01T08:39:34.219Z,3.63
2019-06-01T08:42:04.312Z,4.80
2019-06-01T08:44:34.342Z,4.70
2019-06-01T08:47:04.378Z,5.77
2019-06-01T08:49:34.652Z,4.73
2019-06-01T08:52:05.802Z,4.23
2019-06-01T08:54:35.789Z,4.63
2019-06-01T08:57:05.565Z,5.80
2019-06-01T08:59:35.419Z,7.57
2019-06-01T09:02:05.273Z,6.97
2019-06-01T09:04:36.223Z,8.03
2019-06-01T09:07:07.070Z,6.23
2019-06-01T09:09:36.882Z,9.53
2019-06-01T09:12:06.737Z,7.20
2019-06-01T09:14:36.686Z,8.77
2019-06-01T09:17:06.546Z,7.67
2019-06-01T09:19:36.485Z,8.60
2019-06-01T09:22:06.369Z,10.00
2019-06-01T09:24:36.326Z,6.27
2019-06-01T09:27:06.310Z,10.97
2019-06-01T09:29:36.390Z,8.17
2019-06-01T09:32:10.569Z,5.73
2019-06-01T09:34:37.813Z,6.93
2019-06-01T09:37:07.670Z,17.63
2019-06-01T09:39:37.526Z,11.60
2019-06-01T09:42:07.449Z,8.47
2019-06-01T09:44:37.454Z,5.80
2019-06-01T09:47:08.475Z,10.70
2019-06-01T09:49:38.379Z,8.20
2019-06-01T09:52:12.464Z,5.93
2019-06-01T09:54:41.441Z,6.37
2019-06-01T09:57:11.290Z,7.63
2019-06-01T09:59:41.149Z,5.87
2019-06-01T10:02:11.286Z,7.33
2019-06-01T10:04:41.231Z,5.83
2019-06-01T10:07:11.114Z,9.77
2019-06-01T10:09:42.089Z,8.70
2019-06-01T10:12:12.080Z,6.27
2019-06-01T10:14:42.480Z,4.83
2019-06-01T10:17:12.559Z,4.93
2019-06-01T10:19:43.022Z,7.87
2019-06-01T10:22:13.221Z,7.77
2019-06-01T10:24:43.092Z,5.80
2019-06-01T10:27:13.045Z,6.13
2019-06-01T10:29:43.205Z,4.10
2019-06-01T10:32:13.295Z,3.53
2019-06-01T10:34:43.340Z,5.70
2019-06-01T10:37:13.386Z,7.47
2019-06-01T10:39:44.398Z,5.77
2019-06-01T10:42:14.322Z,5.07
2019-06-01T10:44:45.798Z,4.13
2019-06-01T10:47:15.854Z,6.70
2019-06-01T10:49:45.783Z,4.37
2019-06-01T10:52:16.730Z,3.33
2019-06-01T10:54:46.666Z,4.67
2019-06-01T10:57:16.542Z,4.00
2019-06-01T10:59:46.513Z,3.93
2019-06-01T11:02:16.389Z,4.93
2019-06-01T11:04:46.282Z,5.93
2019-06-01T11:07:16.237Z,4.33
2019-06-01T11:09:46.101Z,4.57
2019-06-01T11:12:17.405Z,7.10
2019-06-01T11:14:47.604Z,4.37
2019-06-01T11:17:17.449Z,5.53
2019-06-01T11:19:47.303Z,3.50
2019-06-01T11:22:17.154Z,4.40
2019-06-01T11:24:50.125Z,3.90
2019-06-01T11:27:20.125Z,6.77
2019-06-01T11:29:51.713Z,5.37
2019-06-01T11:32:21.808Z,5.60
2019-06-01T11:34:51.683Z,7.43
2019-06-01T11:37:21.616Z,8.17
2019-06-01T11:39:51.475Z,8.00
2019-06-01T11:42:21.322Z,6.47
2019-06-01T11:44:51.308Z,9.83
2019-06-01T11:47:21.202Z,5.07
2019-06-01T11:49:51.094Z,5.13
2019-06-01T11:52:20.940Z,4.23
2019-06-01T11:54:50.894Z,4.90
2019-06-01T11:57:20.792Z,9.07
2019-06-01T11:59:50.728Z,7.43
2019-06-01T12:02:20.873Z,6.47
2019-06-01T12:04:50.846Z,5.63
2019-06-01T12:07:20.797Z,7.00
2019-06-01T12:09:50.725Z,6.33
2019-06-01T12:12:20.580Z,6.47
2019-06-01T12:14:50.429Z,4.73
2019-06-01T12:17:20.354Z,7.87
2019-06-01T12:19:50.278Z,4.27
2019-06-01T12:22:20.312Z,4.87
2019-06-01T12:24:50.239Z,3.97
2019-06-01T12:27:20.093Z,11.20
2019-06-01T12:29:52.541Z,25.13
2019-06-01T12:32:21.730Z,17.23
2019-06-01T12:34:51.707Z,23.37
2019-06-01T12:37:40.147Z,16.30
2019-06-01T12:39:54.355Z,20.13
2019-06-01T12:42:28.341Z,14.10
2019-06-01T12:44:58.298Z,12.43
2019-06-01T12:47:28.153Z,8.07
2019-06-01T12:49:58.150Z,9.07
2019-06-01T12:52:29.078Z,8.83
2019-06-01T12:54:59.028Z,12.63
2019-06-01T12:57:28.959Z,16.53
2019-06-01T12:59:58.852Z,15.50
2019-06-01T13:02:28.858Z,24.30
2019-06-01T13:04:58.823Z,15.87
2019-06-01T13:07:28.683Z,11.83
2019-06-01T13:10:10.331Z,13.57
2019-06-01T13:12:41.089Z,8.60
2019-06-01T13:15:11.964Z,11.37
2019-06-01T13:17:43.019Z,6.63
2019-06-01T13:20:13.123Z,9.53
2019-06-01T13:22:43.544Z,9.23
2019-06-01T13:25:13.922Z,7.23
2019-06-01T13:27:44.241Z,8.73
2019-06-01T13:30:14.355Z,11.13
2019-06-01T13:32:44.476Z,8.03
2019-06-01T13:35:14.434Z,7.43
2019-06-01T13:37:44.562Z,16.87
2019-06-01T13:40:14.666Z,11.93
2019-06-01T13:42:44.929Z,26.00
2019-06-01T13:45:15.009Z,11.10
2019-06-01T13:47:45.679Z,13.90
2019-06-01T13:50:15.614Z,6.33
2019-06-01T13:52:45.829Z,9.67
2019-06-01T13:55:15.790Z,19.80
2019-06-01T13:57:46.250Z,10.47
2019-06-01T14:00:29.413Z,10.77
2019-06-01T14:02:52.165Z,10.37
2019-06-01T14:05:19.623Z,13.77
2019-06-01T14:07:49.593Z,10.90
2019-06-01T14:10:19.534Z,11.27
2019-06-01T14:12:49.481Z,13.60
2019-06-01T14:15:19.345Z,13.80
2019-06-01T14:17:50.287Z,12.07
2019-06-01T14:20:21.221Z,13.43
2019-06-01T14:22:51.964Z,13.05
2019-06-01T14:25:21.977Z,10.63
2019-06-01T14:27:52.730Z,12.03
2019-06-01T14:30:24.174Z,12.10
2019-06-01T14:32:54.489Z,11.93
2019-06-01T14:35:24.466Z,16.50
2019-06-01T14:37:55.168Z,11.23
2019-06-01T14:40:25.104Z,10.83
2019-06-01T14:42:55.685Z,11.57
2019-06-01T14:45:25.748Z,9.63
2019-06-01T14:47:55.653Z,8.60
2019-06-01T14:50:26.715Z,14.77
2019-06-01T14:52:57.843Z,11.60
2019-06-01T14:55:27.814Z,18.87
2019-06-01T14:57:58.457Z,18.87
2019-06-01T15:00:28.590Z,14.47
2019-06-01T15:02:58.528Z,14.23
2019-06-01T15:05:28.428Z,16.63
2019-06-01T15:07:59.416Z,16.73
2019-06-01T15:10:30.398Z,15.83
2019-06-01T15:13:03.421Z,9.13
2019-06-01T15:15:33.010Z,14.53
2019-06-01T15:18:05.195Z,13.30
2019-06-01T15:20:34.522Z,12.50
2019-06-01T15:23:04.485Z,10.07
2019-06-01T15:25:34.498Z,14.27
2019-06-01T15:28:04.455Z,7.47
2019-06-01T15:30:34.386Z,10.53
2019-06-01T15:33:04.334Z,12.30
2019-06-01T15:35:34.290Z,11.90
2019-06-01T15:38:04.773Z,9.50
2019-06-01T15:40:34.850Z,11.43
2019-06-01T15:43:04.782Z,8.23
2019-06-01T15:45:34.663Z,10.33
2019-06-01T15:48:04.600Z,10.63
2019-06-01T15:50:34.450Z,13.97
2019-06-01T15:53:04.300Z,10.20
2019-06-01T15:55:34.186Z,13.53
2019-06-01T15:58:04.141Z,11.43
2019-06-01T16:00:34.026Z,16.53
2019-06-01T16:03:04.073Z,7.57
2019-06-01T16:05:34.009Z,7.33
2019-06-01T16:08:03.890Z,5.27
2019-06-01T16:10:33.730Z,8.30
2019-06-01T16:13:04.491Z,10.77
2019-06-01T16:15:35.644Z,9.67
2019-06-01T16:18:05.612Z,9.63
2019-06-01T16:20:35.525Z,12.50
2019-06-01T16:23:05.396Z,11.03
2019-06-01T16:25:35.358Z,17.23
2019-06-01T16:28:05.812Z,10.47
2019-06-01T16:30:35.742Z,10.27
2019-06-01T16:33:05.628Z,8.07
2019-06-01T16:35:35.562Z,6.23
2019-06-01T16:38:05.943Z,6.73
2019-06-01T16:40:36.016Z,9.00
2019-06-01T16:43:05.938Z,9.33
2019-06-01T16:45:35.950Z,6.03
2019-06-01T16:48:06.619Z,12.13
2019-06-01T16:50:36.756Z,9.20
2019-06-01T16:53:06.620Z,7.90
2019-06-01T16:55:36.582Z,8.60
2019-06-01T16:58:06.835Z,7.90
2019-06-01T17:00:36.839Z,11.57
2019-06-01T17:03:11.113Z,7.93
2019-06-01T17:05:39.030Z,7.00
2019-06-01T17:08:08.985Z,6.77
2019-06-01T17:10:39.031Z,7.97
2019-06-01T17:13:09.119Z,10.47
2019-06-01T17:15:39.187Z,9.13
2019-06-01T17:18:10.532Z,18.60
2019-06-01T17:20:46.775Z,18.67
2019-06-01T17:23:27.335Z,16.50
2019-06-01T17:25:48.399Z,11.77
2019-06-01T17:28:18.327Z,17.60
2019-06-01T17:30:48.317Z,16.87
2019-06-01T17:33:18.423Z,16.10
2019-06-01T17:35:48.345Z,10.83
2019-06-01T17:38:18.277Z,10.07
2019-06-01T17:40:48.169Z,8.53
2019-06-01T17:43:18.123Z,10.67
2019-06-01T17:45:48.254Z,15.70
2019-06-01T17:48:25.779Z,10.07
2019-06-01T17:50:49.731Z,10.43
2019-06-01T17:53:19.578Z,6.70
2019-06-01T17:55:49.514Z,14.40
2019-06-01T17:58:19.468Z,8.27
2019-06-01T18:00:49.702Z,8.60
2019-06-01T18:03:19.762Z,11.17
2019-06-01T18:05:49.626Z,6.60
2019-06-01T18:08:19.547Z,9.07
2019-06-01T18:10:54.528Z,7.97
2019-06-01T18:13:20.999Z,12.33
2019-06-01T18:15:51.013Z,14.67
2019-06-01T18:18:21.014Z,10.00
2019-06-01T18:20:50.970Z,8.53
2019-06-01T18:23:22.567Z,10.90
2019-06-01T18:25:52.450Z,7.10
2019-06-01T18:28:22.443Z,7.90
2019-06-01T18:30:52.454Z,6.73
2019-06-01T18:33:22.409Z,6.03
2019-06-01T18:35:52.487Z,6.70
2019-06-01T18:38:22.323Z,6.00
2019-06-01T18:41:06.339Z,9.83
2019-06-01T18:43:24.070Z,7.83
2019-06-01T18:45:54.117Z,9.60
2019-06-01T18:48:23.986Z,7.57
2019-06-01T18:50:54.088Z,8.40
2019-06-01T18:53:24.079Z,6.73
2019-06-01T18:55:54.066Z,11.53
2019-06-01T18:58:23.998Z,7.87
2019-06-01T19:00:53.849Z,9.53
2019-06-01T19:03:23.766Z,8.27
2019-06-01T19:05:53.807Z,7.57
2019-06-01T19:08:23.658Z,8.47
2019-06-01T19:10:53.635Z,8.13
2019-06-01T19:13:23.551Z,10.43
2019-06-01T19:15:53.414Z,12.40
2019-06-01T19:18:23.316Z,14.73
2019-06-01T19:20:53.177Z,10.30
2019-06-01T19:23:23.132Z,13.17
2019-06-01T19:25:53.031Z,11.20
2019-06-01T19:28:22.996Z,7.87
2019-06-01T19:30:52.882Z,10.47
2019-06-01T19:33:22.778Z,13.10
2019-06-01T19:35:53.584Z,13.00
2019-06-01T19:38:23.614Z,10.33
2019-06-01T19:40:53.608Z,10.53
2019-06-01T19:43:23.458Z,8.97
2019-06-01T19:45:53.383Z,13.77
2019-06-01T19:48:23.388Z,12.00
2019-06-01T19:50:53.333Z,14.93
2019-06-01T19:53:23.293Z,10.73
2019-06-01T19:55:53.151Z,14.47
2019-06-01T19:58:24.081Z,13.70
2019-06-01T20:00:55.156Z,17.17
2019-06-01T20:03:25.125Z,12.00
2019-06-01T20:05:55.085Z,12.17
2019-06-01T20:08:25.125Z,9.30
2019-06-01T20:10:55.170Z,12.77
2019-06-01T20:13:25.122Z,21.43
2019-06-01T20:15:55.065Z,13.53
2019-06-01T20:18:25.003Z,14.87
2019-06-01T20:20:54.869Z,14.13
2019-06-01T20:23:24.751Z,12.97
2019-06-01T20:25:54.677Z,8.20
2019-06-01T20:28:24.853Z,13.97
2019-06-01T20:30:54.714Z,16.07
2019-06-01T20:33:24.667Z,11.73
2019-06-01T20:35:54.518Z,9.50
2019-06-01T20:38:24.442Z,9.93
2019-06-01T20:40:54.354Z,9.27
2019-06-01T20:43:24.261Z,12.43
2019-06-01T20:45:56.827Z,11.77
2019-06-01T20:48:25.746Z,14.07
2019-06-01T20:50:56.739Z,10.00
2019-06-01T20:53:26.608Z,12.07
2019-06-01T20:55:56.479Z,10.93
2019-06-01T20:58:26.394Z,10.83
2019-06-01T21:00:56.335Z,14.77
2019-06-01T21:03:26.367Z,15.67
2019-06-01T21:05:56.234Z,12.40
2019-06-01T21:08:26.118Z,12.90
2019-06-01T21:10:56.052Z,13.70
2019-06-01T21:13:25.982Z,22.10
2019-06-01T21:15:55.826Z,15.00
2019-06-01T21:18:25.669Z,18.53
2019-06-01T21:20:55.821Z,17.23
2019-06-01T21:23:25.745Z,16.83
2019-06-01T21:25:56.689Z,15.90
2019-06-01T21:28:26.779Z,15.87
2019-06-01T21:30:56.819Z,14.90
2019-06-01T21:33:28.746Z,15.40
2019-06-01T21:35:58.378Z,15.93
2019-06-01T21:38:28.294Z,16.27
2019-06-01T21:40:58.239Z,16.90
2019-06-01T21:43:34.948Z,19.83
2019-06-01T21:45:59.675Z,17.57
2019-06-01T21:48:29.634Z,19.70
2019-06-01T21:50:59.599Z,15.17
2019-06-01T21:53:29.525Z,17.33
2019-06-01T21:55:59.498Z,17.43
2019-06-01T21:58:29.413Z,24.30
2019-06-01T22:00:59.285Z,24.37
2019-06-01T22:03:30.928Z,26.73
2019-06-01T22:06:00.847Z,27.70
2019-06-01T22:08:30.792Z,27.00
2019-06-01T22:11:00.655Z,25.40
2019-06-01T22:13:30.505Z,26.50
2019-06-01T22:16:00.374Z,24.90
2019-06-01T22:18:30.409Z,27.87
2019-06-01T22:21:00.432Z,30.60
2019-06-01T22:23:30.390Z,30.10
2019-06-01T22:26:00.295Z,28.33
2019-06-01T22:28:30.150Z,30.43
2019-06-01T22:31:00.033Z,25.70
2019-06-01T22:33:29.985Z,32.47
2019-06-01T22:35:59.941Z,32.03
2019-06-01T22:38:29.799Z,31.83
2019-06-01T22:40:59.739Z,28.50
2019-06-01T22:43:43.465Z,23.87
2019-06-01T22:46:01.144Z,28.97
2019-06-01T22:48:31.070Z,26.60
2019-06-01T22:51:00.950Z,25.90
2019-06-01T22:53:30.925Z,27.90
2019-06-01T22:56:00.780Z,29.40
2019-06-01T22:58:31.645Z,26.07
2019-06-01T23:01:01.586Z,25.57
2019-06-01T23:03:32.156Z,28.37
2019-06-01T23:06:02.200Z,24.80
2019-06-01T23:08:32.095Z,27.13
2019-06-01T23:11:02.958Z,24.40
2019-06-01T23:13:32.881Z,25.67
2019-06-01T23:16:02.859Z,31.20
2019-06-01T23:18:32.712Z,25.77
2019-06-01T23:21:02.505Z,26.70
2019-06-01T23:23:33.386Z,25.37
2019-06-01T23:26:03.268Z,22.80
2019-06-01T23:28:33.170Z,24.30
2019-06-01T23:31:03.115Z,25.20
2019-06-01T23:33:33.105Z,24.50
2019-06-01T23:36:03.094Z,23.60
2019-06-01T23:38:32.980Z,24.63
2019-06-01T23:41:02.960Z,24.13
2019-06-01T23:43:33.075Z,27.07
2019-06-01T23:46:03.100Z,23.40
2019-06-01T23:48:34.127Z,22.73
2019-06-01T23:51:04.236Z,24.60
2019-06-01T23:53:35.100Z,20.83
2019-06-01T23:56:05.045Z,24.67
2019-06-01T23:58:34.851Z,20.73
